sensor_id;sensor_type;location;lat;lon;timestamp;P1;durP1;ratioP1;P2;durP2;ratioP2
75971;SDS011;64651;47.540;19.088;2023-12-28T00:01:23;13.35;;;8.50;;
75971;SDS011;64651;47.540;19.088;2023-12-28T00:06:25;12.57;;;7.83;;
75971;SDS011;64651;47.540;19.088;2023-12-28T00:11:27;12.60;;;8.27;;
75971;SDS011;64651;47.540;19.088;2023-12-28T00:16:30;11.83;;;8.07;;
75971;SDS011;64651;47.540;19.088;2023-12-28T00:21:34;11.27;;;7.15;;
75971;SDS011;64651;47.540;19.088;2023-12-28T00:26:37;12.32;;;8.13;;
75971;SDS011;64651;47.540;19.088;2023-12-28T00:31:39;11.17;;;7.57;;
75971;SDS011;64651;47.540;19.088;2023-12-28T00:36:41;12.82;;;8.77;;
75971;SDS011;64651;47.540;19.088;2023-12-28T00:41:43;11.93;;;7.63;;
75971;SDS011;64651;47.540;19.088;2023-12-28T00:46:45;12.25;;;7.80;;
75971;SDS011;64651;47.540;19.088;2023-12-28T00:51:47;12.27;;;7.95;;
75971;SDS011;64651;47.540;19.088;2023-12-28T00:56:50;12.13;;;8.10;;
75971;SDS011;64651;47.540;19.088;2023-12-28T01:01:52;12.98;;;8.38;;
75971;SDS011;64651;47.540;19.088;2023-12-28T01:06:54;12.33;;;8.17;;
75971;SDS011;64651;47.540;19.088;2023-12-28T01:11:56;12.52;;;8.32;;
75971;SDS011;64651;47.540;19.088;2023-12-28T01:16:58;12.95;;;9.10;;
75971;SDS011;64651;47.540;19.088;2023-12-28T01:22:01;12.20;;;8.23;;
75971;SDS011;64651;47.540;19.088;2023-12-28T01:27:03;12.88;;;8.88;;
75971;SDS011;64651;47.540;19.088;2023-12-28T01:32:05;13.03;;;8.63;;
75971;SDS011;64651;47.540;19.088;2023-12-28T01:37:07;12.77;;;8.60;;
75971;SDS011;64651;47.540;19.088;2023-12-28T01:42:10;13.15;;;8.77;;
75971;SDS011;64651;47.540;19.088;2023-12-28T01:47:12;12.60;;;8.57;;
75971;SDS011;64651;47.540;19.088;2023-12-28T01:52:14;12.95;;;9.00;;
75971;SDS011;64651;47.540;19.088;2023-12-28T01:57:16;12.97;;;9.03;;
75971;SDS011;64651;47.540;19.088;2023-12-28T02:02:19;12.57;;;8.18;;
75971;SDS011;64651;47.540;19.088;2023-12-28T02:07:24;12.63;;;8.60;;
75971;SDS011;64651;47.540;19.088;2023-12-28T02:12:27;12.03;;;8.00;;
75971;SDS011;64651;47.540;19.088;2023-12-28T02:17:33;12.68;;;8.15;;
75971;SDS011;64651;47.540;19.088;2023-12-28T02:22:39;12.53;;;8.30;;
75971;SDS011;64651;47.540;19.088;2023-12-28T02:27:43;13.50;;;8.93;;
75971;SDS011;64651;47.540;19.088;2023-12-28T02:32:52;13.20;;;8.93;;
75971;SDS011;64651;47.540;19.088;2023-12-28T02:37:58;12.77;;;8.57;;
75971;SDS011;64651;47.540;19.088;2023-12-28T02:43:04;13.62;;;9.38;;
75971;SDS011;64651;47.540;19.088;2023-12-28T02:48:07;12.17;;;8.30;;
75971;SDS011;64651;47.540;19.088;2023-12-28T02:53:10;13.60;;;8.70;;
75971;SDS011;64651;47.540;19.088;2023-12-28T02:58:12;14.82;;;9.32;;
75971;SDS011;64651;47.540;19.088;2023-12-28T03:03:14;13.73;;;9.37;;
75971;SDS011;64651;47.540;19.088;2023-12-28T03:08:17;13.52;;;10.00;;
75971;SDS011;64651;47.540;19.088;2023-12-28T03:13:19;12.73;;;9.40;;
75971;SDS011;64651;47.540;19.088;2023-12-28T03:18:21;14.02;;;9.48;;
75971;SDS011;64651;47.540;19.088;2023-12-28T03:23:23;14.02;;;10.05;;
75971;SDS011;64651;47.540;19.088;2023-12-28T03:28:25;13.87;;;9.03;;
75971;SDS011;64651;47.540;19.088;2023-12-28T03:33:27;14.80;;;9.45;;
75971;SDS011;64651;47.540;19.088;2023-12-28T03:38:30;14.30;;;9.83;;
75971;SDS011;64651;47.540;19.088;2023-12-28T03:43:32;13.32;;;9.25;;
75971;SDS011;64651;47.540;19.088;2023-12-28T03:48:35;14.43;;;9.40;;
75971;SDS011;64651;47.540;19.088;2023-12-28T03:53:38;13.77;;;9.70;;
75971;SDS011;64651;47.540;19.088;2023-12-28T03:58:40;13.48;;;9.55;;
75971;SDS011;64651;47.540;19.088;2023-12-28T04:03:42;14.10;;;9.90;;
75971;SDS011;64651;47.540;19.088;2023-12-28T04:08:44;14.05;;;9.63;;
75971;SDS011;64651;47.540;19.088;2023-12-28T04:13:46;13.07;;;9.07;;
75971;SDS011;64651;47.540;19.088;2023-12-28T04:18:49;14.23;;;9.60;;
75971;SDS011;64651;47.540;19.088;2023-12-28T04:23:51;13.48;;;9.82;;
75971;SDS011;64651;47.540;19.088;2023-12-28T04:28:53;13.40;;;9.30;;
75971;SDS011;64651;47.540;19.088;2023-12-28T04:33:55;13.32;;;9.27;;
75971;SDS011;64651;47.540;19.088;2023-12-28T04:38:58;13.62;;;9.80;;
75971;SDS011;64651;47.540;19.088;2023-12-28T04:44:00;13.53;;;9.80;;
75971;SDS011;64651;47.540;19.088;2023-12-28T04:49:02;13.73;;;10.05;;
75971;SDS011;64651;47.540;19.088;2023-12-28T04:54:04;13.27;;;9.77;;
75971;SDS011;64651;47.540;19.088;2023-12-28T04:59:06;13.93;;;10.02;;
75971;SDS011;64651;47.540;19.088;2023-12-28T05:04:09;12.93;;;9.02;;
75971;SDS011;64651;47.540;19.088;2023-12-28T05:09:17;13.37;;;8.53;;
75971;SDS011;64651;47.540;19.088;2023-12-28T05:14:19;13.85;;;9.55;;
75971;SDS011;64651;47.540;19.088;2023-12-28T05:19:21;13.83;;;9.57;;
75971;SDS011;64651;47.540;19.088;2023-12-28T05:24:23;13.85;;;9.63;;
75971;SDS011;64651;47.540;19.088;2023-12-28T05:29:26;13.27;;;9.30;;
75971;SDS011;64651;47.540;19.088;2023-12-28T05:34:28;13.43;;;9.17;;
75971;SDS011;64651;47.540;19.088;2023-12-28T05:39:30;13.20;;;9.15;;
75971;SDS011;64651;47.540;19.088;2023-12-28T05:44:32;13.50;;;9.27;;
75971;SDS011;64651;47.540;19.088;2023-12-28T05:49:37;13.40;;;9.27;;
75971;SDS011;64651;47.540;19.088;2023-12-28T05:54:39;13.05;;;8.88;;
75971;SDS011;64651;47.540;19.088;2023-12-28T05:59:42;13.80;;;8.90;;
75971;SDS011;64651;47.540;19.088;2023-12-28T06:04:44;13.88;;;8.98;;
75971;SDS011;64651;47.540;19.088;2023-12-28T06:09:46;13.53;;;9.37;;
75971;SDS011;64651;47.540;19.088;2023-12-28T06:14:49;12.95;;;9.00;;
75971;SDS011;64651;47.540;19.088;2023-12-28T06:19:52;13.68;;;8.73;;
75971;SDS011;64651;47.540;19.088;2023-12-28T06:24:55;12.53;;;8.73;;
75971;SDS011;64651;47.540;19.088;2023-12-28T06:29:57;13.35;;;9.27;;
75971;SDS011;64651;47.540;19.088;2023-12-28T06:34:59;13.43;;;9.47;;
75971;SDS011;64651;47.540;19.088;2023-12-28T06:40:01;13.45;;;9.32;;
75971;SDS011;64651;47.540;19.088;2023-12-28T06:45:03;13.23;;;9.30;;
75971;SDS011;64651;47.540;19.088;2023-12-28T06:50:06;12.63;;;9.03;;
75971;SDS011;64651;47.540;19.088;2023-12-28T06:55:09;14.30;;;8.80;;
75971;SDS011;64651;47.540;19.088;2023-12-28T07:00:11;13.10;;;8.83;;
75971;SDS011;64651;47.540;19.088;2023-12-28T07:05:14;13.32;;;9.30;;
75971;SDS011;64651;47.540;19.088;2023-12-28T07:10:16;12.90;;;8.82;;
75971;SDS011;64651;47.540;19.088;2023-12-28T07:15:18;13.93;;;9.20;;
75971;SDS011;64651;47.540;19.088;2023-12-28T07:20:20;12.77;;;9.35;;
75971;SDS011;64651;47.540;19.088;2023-12-28T07:25:23;12.93;;;9.10;;
75971;SDS011;64651;47.540;19.088;2023-12-28T07:30:24;13.20;;;9.30;;
75971;SDS011;64651;47.540;19.088;2023-12-28T07:35:27;14.73;;;9.90;;
75971;SDS011;64651;47.540;19.088;2023-12-28T07:40:29;13.07;;;9.30;;
75971;SDS011;64651;47.540;19.088;2023-12-28T07:45:31;13.62;;;9.60;;
75971;SDS011;64651;47.540;19.088;2023-12-28T07:50:33;12.87;;;9.40;;
75971;SDS011;64651;47.540;19.088;2023-12-28T07:55:36;13.13;;;9.05;;
75971;SDS011;64651;47.540;19.088;2023-12-28T08:00:38;13.38;;;9.18;;
75971;SDS011;64651;47.540;19.088;2023-12-28T08:05:40;11.63;;;8.43;;
75971;SDS011;64651;47.540;19.088;2023-12-28T08:10:43;13.30;;;9.30;;
75971;SDS011;64651;47.540;19.088;2023-12-28T08:15:46;13.80;;;9.30;;
75971;SDS011;64651;47.540;19.088;2023-12-28T08:20:49;13.45;;;9.35;;
75971;SDS011;64651;47.540;19.088;2023-12-28T08:25:51;13.52;;;9.40;;
75971;SDS011;64651;47.540;19.088;2023-12-28T08:30:55;13.20;;;9.47;;
75971;SDS011;64651;47.540;19.088;2023-12-28T08:35:58;13.62;;;9.50;;
75971;SDS011;64651;47.540;19.088;2023-12-28T08:41:01;13.23;;;9.30;;
75971;SDS011;64651;47.540;19.088;2023-12-28T08:46:07;13.50;;;9.30;;
75971;SDS011;64651;47.540;19.088;2023-12-28T08:51:09;13.23;;;9.27;;
75971;SDS011;64651;47.540;19.088;2023-12-28T08:56:13;14.67;;;9.10;;
75971;SDS011;64651;47.540;19.088;2023-12-28T09:01:25;12.77;;;9.20;;
75971;SDS011;64651;47.540;19.088;2023-12-28T09:06:27;13.00;;;9.00;;
75971;SDS011;64651;47.540;19.088;2023-12-28T09:11:29;12.37;;;8.77;;
75971;SDS011;64651;47.540;19.088;2023-12-28T09:16:31;13.80;;;9.52;;
75971;SDS011;64651;47.540;19.088;2023-12-28T09:21:34;13.10;;;9.70;;
75971;SDS011;64651;47.540;19.088;2023-12-28T09:26:36;13.07;;;9.07;;
75971;SDS011;64651;47.540;19.088;2023-12-28T09:31:39;13.53;;;9.07;;
75971;SDS011;64651;47.540;19.088;2023-12-28T09:36:41;12.98;;;9.15;;
75971;SDS011;64651;47.540;19.088;2023-12-28T09:41:45;12.60;;;9.00;;
75971;SDS011;64651;47.540;19.088;2023-12-28T09:46:55;13.90;;;9.53;;
75971;SDS011;64651;47.540;19.088;2023-12-28T09:51:59;12.75;;;9.45;;
75971;SDS011;64651;47.540;19.088;2023-12-28T09:57:02;13.10;;;9.50;;
75971;SDS011;64651;47.540;19.088;2023-12-28T10:02:04;14.75;;;9.20;;
75971;SDS011;64651;47.540;19.088;2023-12-28T10:07:07;12.63;;;9.13;;
75971;SDS011;64651;47.540;19.088;2023-12-28T10:12:09;13.40;;;8.77;;
75971;SDS011;64651;47.540;19.088;2023-12-28T10:17:11;14.48;;;9.43;;
75971;SDS011;64651;47.540;19.088;2023-12-28T10:22:13;13.90;;;8.73;;
75971;SDS011;64651;47.540;19.088;2023-12-28T10:27:16;12.45;;;8.98;;
75971;SDS011;64651;47.540;19.088;2023-12-28T10:32:18;14.43;;;9.48;;
75971;SDS011;64651;47.540;19.088;2023-12-28T10:37:21;13.77;;;9.10;;
75971;SDS011;64651;47.540;19.088;2023-12-28T10:42:29;13.07;;;9.07;;
75971;SDS011;64651;47.540;19.088;2023-12-28T10:47:37;13.53;;;9.83;;
75971;SDS011;64651;47.540;19.088;2023-12-28T10:52:40;12.88;;;8.77;;
75971;SDS011;64651;47.540;19.088;2023-12-28T11:03:10;12.77;;;8.70;;
75971;SDS011;64651;47.540;19.088;2023-12-28T11:08:16;13.57;;;8.95;;
75971;SDS011;64651;47.540;19.088;2023-12-28T11:13:21;12.93;;;8.53;;
75971;SDS011;64651;47.540;19.088;2023-12-28T11:18:25;12.98;;;8.32;;
75971;SDS011;64651;47.540;19.088;2023-12-28T11:23:30;13.35;;;8.43;;
75971;SDS011;64651;47.540;19.088;2023-12-28T11:28:32;12.67;;;9.13;;
75971;SDS011;64651;47.540;19.088;2023-12-28T11:33:42;12.52;;;9.07;;
75971;SDS011;64651;47.540;19.088;2023-12-28T11:38:48;12.30;;;8.60;;
75971;SDS011;64651;47.540;19.088;2023-12-28T11:43:56;12.55;;;8.65;;
75971;SDS011;64651;47.540;19.088;2023-12-28T11:49:04;12.45;;;9.13;;
75971;SDS011;64651;47.540;19.088;2023-12-28T11:54:07;12.90;;;9.10;;
75971;SDS011;64651;47.540;19.088;2023-12-28T11:59:10;13.02;;;9.43;;
75971;SDS011;64651;47.540;19.088;2023-12-28T12:04:12;13.30;;;8.93;;
75971;SDS011;64651;47.540;19.088;2023-12-28T12:09:14;13.02;;;9.30;;
75971;SDS011;64651;47.540;19.088;2023-12-28T12:14:17;13.43;;;8.90;;
75971;SDS011;64651;47.540;19.088;2023-12-28T12:19:19;13.03;;;9.00;;
75971;SDS011;64651;47.540;19.088;2023-12-28T12:24:21;12.90;;;9.25;;
75971;SDS011;64651;47.540;19.088;2023-12-28T12:29:24;12.90;;;8.70;;
75971;SDS011;64651;47.540;19.088;2023-12-28T12:34:30;12.90;;;8.82;;
75971;SDS011;64651;47.540;19.088;2023-12-28T12:39:33;12.68;;;8.90;;
75971;SDS011;64651;47.540;19.088;2023-12-28T12:44:35;11.30;;;8.60;;
75971;SDS011;64651;47.540;19.088;2023-12-28T12:49:37;11.45;;;8.55;;
75971;SDS011;64651;47.540;19.088;2023-12-28T12:54:40;12.80;;;9.13;;
75971;SDS011;64651;47.540;19.088;2023-12-28T12:59:42;13.18;;;8.85;;
75971;SDS011;64651;47.540;19.088;2023-12-28T13:04:44;11.90;;;8.55;;
75971;SDS011;64651;47.540;19.088;2023-12-28T13:09:47;12.83;;;8.70;;
75971;SDS011;64651;47.540;19.088;2023-12-28T13:14:49;12.35;;;9.30;;
75971;SDS011;64651;47.540;19.088;2023-12-28T13:19:51;12.63;;;8.90;;
75971;SDS011;64651;47.540;19.088;2023-12-28T13:24:54;12.80;;;8.57;;
75971;SDS011;64651;47.540;19.088;2023-12-28T13:29:56;11.45;;;8.25;;
75971;SDS011;64651;47.540;19.088;2023-12-28T13:34:58;12.07;;;8.20;;
75971;SDS011;64651;47.540;19.088;2023-12-28T13:40:05;12.98;;;8.95;;
75971;SDS011;64651;47.540;19.088;2023-12-28T13:45:08;12.27;;;8.27;;
75971;SDS011;64651;47.540;19.088;2023-12-28T13:50:11;11.98;;;8.30;;
75971;SDS011;64651;47.540;19.088;2023-12-28T13:55:13;12.95;;;8.65;;
75971;SDS011;64651;47.540;19.088;2023-12-28T14:00:15;12.70;;;8.33;;
75971;SDS011;64651;47.540;19.088;2023-12-28T14:05:18;12.57;;;8.90;;
75971;SDS011;64651;47.540;19.088;2023-12-28T14:10:21;12.83;;;8.97;;
75971;SDS011;64651;47.540;19.088;2023-12-28T14:15:23;12.63;;;8.57;;
75971;SDS011;64651;47.540;19.088;2023-12-28T14:20:25;12.65;;;8.15;;
75971;SDS011;64651;47.540;19.088;2023-12-28T14:25:29;11.60;;;8.47;;
75971;SDS011;64651;47.540;19.088;2023-12-28T14:30:32;12.48;;;8.68;;
75971;SDS011;64651;47.540;19.088;2023-12-28T14:35:35;12.53;;;8.63;;
75971;SDS011;64651;47.540;19.088;2023-12-28T14:40:37;12.75;;;8.65;;
75971;SDS011;64651;47.540;19.088;2023-12-28T14:45:39;12.18;;;8.32;;
75971;SDS011;64651;47.540;19.088;2023-12-28T14:50:43;12.07;;;8.37;;
75971;SDS011;64651;47.540;19.088;2023-12-28T14:55:45;12.68;;;9.05;;
75971;SDS011;64651;47.540;19.088;2023-12-28T15:00:47;11.70;;;8.27;;
75971;SDS011;64651;47.540;19.088;2023-12-28T15:05:51;13.57;;;8.27;;
75971;SDS011;64651;47.540;19.088;2023-12-28T15:10:53;12.13;;;8.85;;
75971;SDS011;64651;47.540;19.088;2023-12-28T15:15:56;11.40;;;8.17;;
75971;SDS011;64651;47.540;19.088;2023-12-28T15:20:59;12.02;;;8.10;;
75971;SDS011;64651;47.540;19.088;2023-12-28T15:26:01;11.63;;;8.27;;
75971;SDS011;64651;47.540;19.088;2023-12-28T15:31:03;11.35;;;7.97;;
75971;SDS011;64651;47.540;19.088;2023-12-28T15:36:06;11.63;;;8.50;;
75971;SDS011;64651;47.540;19.088;2023-12-28T15:41:09;13.17;;;8.37;;
75971;SDS011;64651;47.540;19.088;2023-12-28T15:46:11;11.73;;;7.97;;
75971;SDS011;64651;47.540;19.088;2023-12-28T15:51:13;11.33;;;7.90;;
75971;SDS011;64651;47.540;19.088;2023-12-28T15:56:15;11.68;;;7.70;;
75971;SDS011;64651;47.540;19.088;2023-12-28T16:01:20;11.07;;;8.00;;
75971;SDS011;64651;47.540;19.088;2023-12-28T16:06:23;11.30;;;7.73;;
75971;SDS011;64651;47.540;19.088;2023-12-28T16:11:25;11.57;;;8.30;;
75971;SDS011;64651;47.540;19.088;2023-12-28T16:16:27;11.70;;;7.97;;
75971;SDS011;64651;47.540;19.088;2023-12-28T16:21:30;12.27;;;8.90;;
75971;SDS011;64651;47.540;19.088;2023-12-28T16:26:33;12.48;;;8.45;;
75971;SDS011;64651;47.540;19.088;2023-12-28T16:31:37;11.93;;;8.43;;
75971;SDS011;64651;47.540;19.088;2023-12-28T16:36:39;12.65;;;8.45;;
75971;SDS011;64651;47.540;19.088;2023-12-28T16:41:41;12.63;;;9.13;;
75971;SDS011;64651;47.540;19.088;2023-12-28T16:46:44;12.32;;;8.98;;
75971;SDS011;64651;47.540;19.088;2023-12-28T16:51:47;12.40;;;8.35;;
75971;SDS011;64651;47.540;19.088;2023-12-28T16:56:50;12.07;;;8.70;;
75971;SDS011;64651;47.540;19.088;2023-12-28T17:01:52;12.07;;;8.55;;
75971;SDS011;64651;47.540;19.088;2023-12-28T17:06:54;14.37;;;9.07;;
75971;SDS011;64651;47.540;19.088;2023-12-28T17:12:00;12.63;;;8.43;;
75971;SDS011;64651;47.540;19.088;2023-12-28T17:17:12;12.15;;;8.35;;
75971;SDS011;64651;47.540;19.088;2023-12-28T17:22:15;12.30;;;8.47;;
75971;SDS011;64651;47.540;19.088;2023-12-28T17:27:19;11.57;;;8.73;;
75971;SDS011;64651;47.540;19.088;2023-12-28T17:32:34;12.60;;;8.97;;
75971;SDS011;64651;47.540;19.088;2023-12-28T17:37:40;14.30;;;9.80;;
75971;SDS011;64651;47.540;19.088;2023-12-28T17:42:43;14.05;;;9.80;;
75971;SDS011;64651;47.540;19.088;2023-12-28T17:53:10;15.68;;;11.75;;
75971;SDS011;64651;47.540;19.088;2023-12-28T17:58:14;16.67;;;11.00;;
75971;SDS011;64651;47.540;19.088;2023-12-28T18:03:16;16.17;;;11.05;;
75971;SDS011;64651;47.540;19.088;2023-12-28T18:08:18;15.98;;;11.45;;
75971;SDS011;64651;47.540;19.088;2023-12-28T18:13:20;16.40;;;11.77;;
75971;SDS011;64651;47.540;19.088;2023-12-28T18:18:23;16.70;;;11.95;;
75971;SDS011;64651;47.540;19.088;2023-12-28T18:23:25;15.67;;;11.07;;
75971;SDS011;64651;47.540;19.088;2023-12-28T18:28:27;15.18;;;10.93;;
75971;SDS011;64651;47.540;19.088;2023-12-28T18:33:29;16.52;;;11.63;;
75971;SDS011;64651;47.540;19.088;2023-12-28T18:38:32;15.83;;;10.80;;
75971;SDS011;64651;47.540;19.088;2023-12-28T18:43:34;14.65;;;10.43;;
75971;SDS011;64651;47.540;19.088;2023-12-28T18:48:36;14.73;;;11.30;;
75971;SDS011;64651;47.540;19.088;2023-12-28T18:53:38;15.10;;;11.32;;
75971;SDS011;64651;47.540;19.088;2023-12-28T18:58:45;15.75;;;11.43;;
75971;SDS011;64651;47.540;19.088;2023-12-28T19:03:47;16.20;;;11.20;;
75971;SDS011;64651;47.540;19.088;2023-12-28T19:08:50;17.17;;;11.60;;
75971;SDS011;64651;47.540;19.088;2023-12-28T19:13:54;15.43;;;11.87;;
75971;SDS011;64651;47.540;19.088;2023-12-28T19:18:56;14.93;;;11.32;;
75971;SDS011;64651;47.540;19.088;2023-12-28T19:23:58;14.68;;;11.05;;
75971;SDS011;64651;47.540;19.088;2023-12-28T19:29:01;16.30;;;12.23;;
75971;SDS011;64651;47.540;19.088;2023-12-28T19:34:03;16.98;;;11.93;;
75971;SDS011;64651;47.540;19.088;2023-12-28T19:39:05;16.33;;;11.90;;
75971;SDS011;64651;47.540;19.088;2023-12-28T19:44:08;16.92;;;12.05;;
75971;SDS011;64651;47.540;19.088;2023-12-28T19:49:10;16.25;;;12.65;;
75971;SDS011;64651;47.540;19.088;2023-12-28T19:54:12;16.60;;;12.03;;
75971;SDS011;64651;47.540;19.088;2023-12-28T19:59:14;17.70;;;12.20;;
75971;SDS011;64651;47.540;19.088;2023-12-28T20:04:16;17.20;;;12.27;;
75971;SDS011;64651;47.540;19.088;2023-12-28T20:09:19;16.65;;;12.80;;
75971;SDS011;64651;47.540;19.088;2023-12-28T20:14:21;16.12;;;12.02;;
75971;SDS011;64651;47.540;19.088;2023-12-28T20:19:23;17.57;;;12.30;;
75971;SDS011;64651;47.540;19.088;2023-12-28T20:24:27;16.83;;;13.00;;
75971;SDS011;64651;47.540;19.088;2023-12-28T20:29:31;16.07;;;12.40;;
75971;SDS011;64651;47.540;19.088;2023-12-28T20:34:33;17.25;;;12.05;;
75971;SDS011;64651;47.540;19.088;2023-12-28T20:39:35;18.62;;;13.65;;
75971;SDS011;64651;47.540;19.088;2023-12-28T20:44:37;16.53;;;12.67;;
75971;SDS011;64651;47.540;19.088;2023-12-28T20:49:40;17.52;;;13.18;;
75971;SDS011;64651;47.540;19.088;2023-12-28T20:54:48;17.93;;;13.13;;
75971;SDS011;64651;47.540;19.088;2023-12-28T20:59:50;17.25;;;13.25;;
75971;SDS011;64651;47.540;19.088;2023-12-28T21:04:52;18.33;;;13.00;;
75971;SDS011;64651;47.540;19.088;2023-12-28T21:09:55;18.93;;;13.43;;
75971;SDS011;64651;47.540;19.088;2023-12-28T21:14:57;18.85;;;14.32;;
75971;SDS011;64651;47.540;19.088;2023-12-28T21:19:59;17.47;;;13.40;;
75971;SDS011;64651;47.540;19.088;2023-12-28T21:25:02;18.02;;;13.50;;
75971;SDS011;64651;47.540;19.088;2023-12-28T21:30:04;17.50;;;13.65;;
75971;SDS011;64651;47.540;19.088;2023-12-28T21:35:08;19.70;;;13.60;;
75971;SDS011;64651;47.540;19.088;2023-12-28T21:40:12;19.08;;;14.60;;
75971;SDS011;64651;47.540;19.088;2023-12-28T21:45:15;19.57;;;14.83;;
75971;SDS011;64651;47.540;19.088;2023-12-28T21:50:17;18.27;;;14.10;;
75971;SDS011;64651;47.540;19.088;2023-12-28T21:55:19;19.17;;;14.50;;
75971;SDS011;64651;47.540;19.088;2023-12-28T22:00:21;18.73;;;15.10;;
75971;SDS011;64651;47.540;19.088;2023-12-28T22:05:23;19.33;;;15.18;;
75971;SDS011;64651;47.540;19.088;2023-12-28T22:10:26;18.80;;;14.83;;
75971;SDS011;64651;47.540;19.088;2023-12-28T22:15:28;19.85;;;15.23;;
75971;SDS011;64651;47.540;19.088;2023-12-28T22:20:30;19.10;;;14.48;;
75971;SDS011;64651;47.540;19.088;2023-12-28T22:25:32;19.97;;;14.77;;
75971;SDS011;64651;47.540;19.088;2023-12-28T22:30:35;20.95;;;15.60;;
75971;SDS011;64651;47.540;19.088;2023-12-28T22:35:37;20.97;;;15.50;;
75971;SDS011;64651;47.540;19.088;2023-12-28T22:40:39;20.90;;;16.25;;
75971;SDS011;64651;47.540;19.088;2023-12-28T22:45:41;20.27;;;15.65;;
75971;SDS011;64651;47.540;19.088;2023-12-28T22:50:44;23.03;;;16.50;;
75971;SDS011;64651;47.540;19.088;2023-12-28T22:55:46;22.02;;;16.55;;
75971;SDS011;64651;47.540;19.088;2023-12-28T23:00:48;21.53;;;16.60;;
75971;SDS011;64651;47.540;19.088;2023-12-28T23:05:51;20.67;;;15.77;;
75971;SDS011;64651;47.540;19.088;2023-12-28T23:10:54;23.38;;;16.50;;
75971;SDS011;64651;47.540;19.088;2023-12-28T23:15:56;20.70;;;16.30;;
75971;SDS011;64651;47.540;19.088;2023-12-28T23:20:59;21.55;;;16.60;;
75971;SDS011;64651;47.540;19.088;2023-12-28T23:26:01;21.60;;;16.13;;
75971;SDS011;64651;47.540;19.088;2023-12-28T23:31:04;21.17;;;17.02;;
75971;SDS011;64651;47.540;19.088;2023-12-28T23:36:06;22.13;;;15.73;;
75971;SDS011;64651;47.540;19.088;2023-12-28T23:41:10;21.30;;;16.13;;
75971;SDS011;64651;47.540;19.088;2023-12-28T23:46:13;19.75;;;15.60;;
75971;SDS011;64651;47.540;19.088;2023-12-28T23:51:15;22.03;;;16.53;;
75971;SDS011;64651;47.540;19.088;2023-12-28T23:56:18;21.42;;;15.77;;
